Sunday, November 18, 2018, 10:14 AM EST
Back to Local

KELM, Elmira County Airport

Location: Horseheads, NY, United States Lat: 42.167
Local Time: 10:14 AM EST (15:14 GMT) Lon: -76.9
Time Zone: US/Eastern Elev: 954 ft

Show me the last for .
Show Decoded

2018-11-18 09:53 METAR KELM 181453Z 04003KT 10SM OVC060 01/M02 A3031 RMK AO2 SNE45 SLP272 P0000
                 60001 T00061022 58002 =
2018-11-18 09:37 METAR KELM 181437Z 03003KT 3SM -SN BR SCT039 OVC060 00/M02 A3031 RMK AO2 P0000
                 T00001022 =
2018-11-18 08:53 METAR KELM 181353Z 02003KT 1 3/4SM -SN BKN039 OVC050 00/M03 A3031 RMK AO2 SLP275
                 P0001 T00001028 =
2018-11-18 08:26 METAR KELM 181326Z 02003KT 1 1/2SM -SN FEW024 BKN039 OVC065 00/M03 A3032 RMK AO2
                 P0001 T00001028 =
2018-11-18 08:17 METAR KELM 181317Z 01003KT 2 1/2SM -SN BR FEW024 BKN041 OVC060 M01/M03 A3032 RMK
                 AO2 P0000 T10061028 =
2018-11-18 07:53 METAR KELM 181253Z 05003KT 1 1/2SM -SN SCT021 OVC031 00/M03 A3032 RMK AO2 SLP275
                 P0000 T00001033 =
2018-11-18 07:48 METAR KELM 181248Z 06003KT 1 3/4SM -SN BKN021 OVC031 00/M03 A3032 RMK AO2 P0000
                 =
2018-11-18 06:53 METAR KELM 181153Z 00000KT 3SM -SN OVC024 00/M04 A3031 RMK AO2 SNB43 SLP272
                 P0000 60000 70001 T00001039 10011 20000 50003 =
2018-11-18 05:53 METAR KELM 181053Z 00000KT 10SM OVC023 00/M04 A3031 RMK AO2 SLP273 T00001039 =
2018-11-18 04:53 METAR KELM 180953Z AUTO 00000KT 10SM OVC023 00/M03 A3031 RMK AO2 SLP271
                 T00001033 =
2018-11-18 03:53 METAR KELM 180853Z AUTO 00000KT 10SM BKN026 OVC031 01/M04 A3030 RMK AO2 SLP269
                 T00061039 55002 =
2018-11-18 03:30 METAR KELM 180830Z AUTO 10003KT 10SM BKN024 OVC034 00/M04 A3031 RMK AO2
                 T00001039 =
2018-11-18 03:22 METAR KELM 180822Z AUTO 00000KT 10SM SCT022 SCT027 OVC034 01/M04 A3030 RMK AO2
                 T00061039 =
2018-11-18 02:53 METAR KELM 180753Z AUTO 09004KT 10SM OVC022 01/M04 A3029 RMK AO2 SLP267
                 T00061039 =
2018-11-18 02:16 METAR KELM 180716Z AUTO 05005KT 10SM BKN022 BKN029 OVC039 01/M04 A3031 RMK AO2
                 T00061044 =
2018-11-18 01:53 METAR KELM 180653Z AUTO 04005KT 10SM FEW030 OVC039 01/M04 A3031 RMK AO2 SLP273
                 T00061039 =
2018-11-18 01:43 METAR KELM 180643Z AUTO 04006KT 10SM SCT028 OVC039 01/M04 A3031 RMK AO2
                 T00061039 =
2018-11-18 00:53 METAR KELM 180553Z AUTO 03005KT 10SM SCT022 BKN028 OVC040 01/M03 A3030 RMK AO2
                 SLP271 T00111028 10028 20011 51008 =
2018-11-17 23:53 METAR KELM 180453Z AUTO 08005KT 10SM OVC040 01/M03 A3030 RMK AO2 SLP269
                 T00111028 400440011 =
2018-11-17 22:53 METAR KELM 180353Z 00000KT 10SM OVC038 02/M04 A3029 RMK AO2 SLP265 T00171039 =
2018-11-17 21:53 METAR KELM 180253Z 31004KT 10SM OVC036 02/M04 A3028 RMK AO2 SLP262 T00221039
                 51010 =
2018-11-17 19:53 METAR KELM 180053Z 28005KT 10SM OVC034 03/M03 A3026 RMK AO2 SLP256 T00281028 =
2018-11-17 19:04 METAR KELM 180004Z 00000KT 10SM FEW024 SCT030 OVC036 03/M02 A3025 RMK AO2
                 T00281022 =
2018-11-17 18:53 METAR KELM 172353Z 26005KT 10SM BKN026 OVC032 03/M02 A3025 RMK AO2 SLP252 60000
                 T00281022 10044 20022 51022 =
2018-11-17 18:22 METAR KELM 172322Z 29004KT 10SM BKN027 OVC035 03/M02 A3024 RMK AO2 T00281017 =
2018-11-17 17:53 METAR KELM 172253Z 28004KT 10SM FEW023 SCT027 OVC038 03/M02 A3023 RMK AO2
                 SNB01E10 SLP245 P0000 T00281017 =
2018-11-17 17:31 METAR KELM 172231Z 25005KT 10SM SCT028 OVC033 03/M02 A3022 RMK AO2 SNB01E10
                 P0000 T00281017 =
2018-11-17 17:10 METAR KELM 172210Z 29007KT 9SM BKN029 OVC034 03/M02 A3021 RMK AO2 SNB01E10 P0000
                 T00281017 =
2018-11-17 16:53 METAR KELM 172153Z 30005KT 10SM FEW027 BKN034 OVC041 03/M01 A3021 RMK AO2 SLP238
                 T00281011 =
2018-11-17 15:53 METAR KELM 172053Z 33007KT 10SM BKN034 OVC043 04/M02 A3018 RMK AO2 SLP229
                 T00391017 53015 =
2018-11-17 14:53 METAR KELM 171953Z 24005KT 10SM OVC036 04/M01 A3016 RMK AO2 SLP221 T00391006 =
2018-11-17 14:30 METAR KELM 171930Z 24005KT 10SM BKN031 OVC036 04/M01 A3016 RMK AO2 T00391006 =
2018-11-17 13:53 METAR KELM 171853Z 27007KT 10SM OVC026 04/M01 A3014 RMK AO2 SLP215 T00391006 =
2018-11-17 13:34 METAR KELM 171834Z 24006KT 10SM BKN024 BKN032 OVC040 04/00 A3014 RMK AO2
                 T00390000 =
2018-11-17 12:53 METAR KELM 171753Z 22005KT 10SM BKN032 OVC043 03/01 A3014 RMK AO2 RAB08E28
                 SLP213 P0000 60001 T00330006 10039 20028 58001 =
2018-11-17 12:15 METAR KELM 171715Z 27008KT 9SM -RA BKN032 OVC041 03/00 A3014 RMK AO2 RAB08 P0000
                 T00330000 =
2018-11-17 11:53 METAR KELM 171653Z 27006KT 10SM BKN027 OVC038 03/00 A3014 RMK AO2 RAB09E53
                 SLP214 P0001 T00330000 =
2018-11-17 10:53 METAR KELM 171553Z 00000KT 10SM OVC022 04/01 A3014 RMK AO2 SLP215 T00390006 =

Support USWX by starting your Amazon purchase here.